createdAt,value
2022-11-04T00:01:44.474Z,1.40
2022-11-04T00:04:12.496Z,1.60
2022-11-04T00:06:39.763Z,1.43
2022-11-04T00:09:08.794Z,1.27
2022-11-04T00:11:54.076Z,1.00
2022-11-04T00:14:20.831Z,1.30
2022-11-04T00:17:05.873Z,1.30
2022-11-04T00:19:52.496Z,1.40
2022-11-04T00:22:38.117Z,1.20
2022-11-04T00:25:23.437Z,1.10
2022-11-04T00:28:08.445Z,1.37
2022-11-04T00:30:35.173Z,1.20
2022-11-04T00:33:20.229Z,1.50
2022-11-04T00:35:54.355Z,1.43
2022-11-04T00:38:21.002Z,1.30
2022-11-04T00:40:47.509Z,1.20
2022-11-04T00:43:14.125Z,1.20
2022-11-04T00:45:42.313Z,1.20
2022-11-04T00:48:09.340Z,1.37
2022-11-04T00:50:36.621Z,1.40
2022-11-04T00:53:03.958Z,1.30
2022-11-04T00:55:30.498Z,1.40
2022-11-04T00:57:58.536Z,1.60
2022-11-04T01:00:25.318Z,1.27
2022-11-04T01:02:51.852Z,1.20
2022-11-04T01:05:18.461Z,1.27
2022-11-04T01:07:44.934Z,1.50
2022-11-04T01:10:11.591Z,1.50
2022-11-04T01:12:38.098Z,1.50
2022-11-04T01:15:05.139Z,1.23
2022-11-04T01:17:31.621Z,1.20
2022-11-04T01:19:58.116Z,1.40
2022-11-04T01:22:24.603Z,1.40
2022-11-04T01:24:51.089Z,1.50
2022-11-04T01:27:17.825Z,1.70
2022-11-04T01:29:44.358Z,1.43
2022-11-04T01:32:10.817Z,1.50
2022-11-04T01:34:42.378Z,1.50
2022-11-04T01:37:10.317Z,1.57
2022-11-04T01:39:36.777Z,1.50
2022-11-04T01:44:46.974Z,1.73
2022-11-04T01:47:19.991Z,1.70
2022-11-04T01:49:50.490Z,1.73
2022-11-04T01:52:23.748Z,1.80
2022-11-04T01:54:52.026Z,1.93
2022-11-04T01:57:20.543Z,1.73
2022-11-04T01:59:47.424Z,2.00
2022-11-04T02:02:14.105Z,1.80
2022-11-04T02:04:40.814Z,2.00
2022-11-04T02:07:09.482Z,1.77
2022-11-04T02:09:37.702Z,1.83
2022-11-04T02:12:23.413Z,1.90
2022-11-04T02:14:50.620Z,2.10
2022-11-04T02:17:20.123Z,2.13
2022-11-04T02:20:01.971Z,2.10
2022-11-04T02:22:42.156Z,1.93
2022-11-04T02:25:23.872Z,1.90
2022-11-04T02:28:13.548Z,2.07
2022-11-04T02:30:59.244Z,2.00
2022-11-04T02:33:40.358Z,1.90
2022-11-04T02:36:12.623Z,2.13
2022-11-04T02:38:49.827Z,1.73
2022-11-04T02:41:22.450Z,2.07
2022-11-04T02:44:15.208Z,2.63
2022-11-04T02:47:03.451Z,2.13
2022-11-04T02:49:53.186Z,1.90
2022-11-04T02:52:26.496Z,2.23
2022-11-04T02:55:00.987Z,2.30
2022-11-04T02:57:31.056Z,2.30
2022-11-04T03:00:02.132Z,2.33
2022-11-04T03:02:35.076Z,1.90
2022-11-04T03:05:03.773Z,2.30
2022-11-04T03:07:33.003Z,2.27
2022-11-04T03:10:06.823Z,1.90
2022-11-04T03:12:39.157Z,2.10
2022-11-04T03:15:07.981Z,2.40
2022-11-04T03:17:56.415Z,1.83
2022-11-04T03:20:26.007Z,2.13
2022-11-04T03:22:55.739Z,2.60
2022-11-04T03:25:27.460Z,2.00
2022-11-04T03:28:17.756Z,2.20
2022-11-04T03:30:47.796Z,2.10
2022-11-04T03:33:40.121Z,2.23
2022-11-04T03:36:08.853Z,2.20
2022-11-04T03:38:36.407Z,2.40
2022-11-04T03:41:06.816Z,2.33
2022-11-04T03:43:34.795Z,2.37
2022-11-04T03:46:01.295Z,2.23
2022-11-04T03:48:27.852Z,2.30
2022-11-04T03:50:54.327Z,2.20
2022-11-04T03:53:22.665Z,2.23
2022-11-04T03:56:07.390Z,1.77
2022-11-04T03:58:36.924Z,2.40
2022-11-04T04:01:12.896Z,2.27
2022-11-04T04:03:48.452Z,2.00
2022-11-04T04:06:21.791Z,1.90
2022-11-04T04:08:57.520Z,2.03
2022-11-04T04:11:45.197Z,1.87
2022-11-04T04:14:37.581Z,2.00
2022-11-04T04:17:07.418Z,1.77
2022-11-04T04:19:34.138Z,2.10
2022-11-04T04:22:09.548Z,1.70
2022-11-04T04:24:56.110Z,1.90
2022-11-04T04:27:32.738Z,1.80
2022-11-04T04:30:14.564Z,1.93
2022-11-04T04:32:45.673Z,1.93
2022-11-04T04:35:31.360Z,1.90
2022-11-04T04:38:20.925Z,2.00
2022-11-04T04:41:23.487Z,2.20
2022-11-04T04:44:08.879Z,1.70
2022-11-04T04:46:35.855Z,2.20
2022-11-04T04:49:08.985Z,1.83
2022-11-04T04:51:41.578Z,2.33
2022-11-04T04:54:08.150Z,2.13
2022-11-04T04:56:34.608Z,2.23
2022-11-04T04:59:01.114Z,1.90
2022-11-04T05:01:28.536Z,2.73
2022-11-04T05:03:55.076Z,1.97
2022-11-04T05:06:21.639Z,1.70
2022-11-04T05:08:48.069Z,2.20
2022-11-04T05:11:14.734Z,2.07
2022-11-04T05:13:41.266Z,2.20
2022-11-04T05:16:11.575Z,2.23
2022-11-04T05:18:38.252Z,2.20
2022-11-04T05:21:06.900Z,1.60
2022-11-04T05:23:34.893Z,2.53
2022-11-04T05:26:01.442Z,2.00
2022-11-04T05:28:27.962Z,2.10
2022-11-04T05:30:54.599Z,2.37
2022-11-04T05:33:21.365Z,2.03
2022-11-04T05:35:47.880Z,1.90
2022-11-04T05:38:14.572Z,1.90
2022-11-04T05:40:41.041Z,1.93
2022-11-04T05:43:08.369Z,2.07
2022-11-04T05:45:35.094Z,1.87
2022-11-04T05:48:03.684Z,2.50
2022-11-04T05:50:31.654Z,2.30
2022-11-04T05:52:59.018Z,2.17
2022-11-04T05:55:26.287Z,2.17
2022-11-04T05:57:53.761Z,2.40
2022-11-04T06:00:20.435Z,1.87
2022-11-04T06:02:47.088Z,2.57
2022-11-04T06:05:13.701Z,2.03
2022-11-04T06:07:40.290Z,2.10
2022-11-04T06:10:07.260Z,2.30
2022-11-04T06:12:33.854Z,2.57
2022-11-04T06:15:00.387Z,2.22
2022-11-04T06:17:26.865Z,2.20
2022-11-04T06:19:53.690Z,2.00
2022-11-04T06:22:20.424Z,2.30
2022-11-04T06:24:46.951Z,2.10
2022-11-04T06:27:13.992Z,2.27
2022-11-04T06:29:41.392Z,1.97
2022-11-04T06:32:13.310Z,2.33
2022-11-04T06:34:40.273Z,2.50
2022-11-04T06:37:06.818Z,2.40
2022-11-04T06:39:33.373Z,2.30
2022-11-04T06:42:02.646Z,2.40
2022-11-04T06:44:29.556Z,2.20
2022-11-04T06:46:56.182Z,2.20
2022-11-04T06:49:25.564Z,3.23
2022-11-04T06:51:52.245Z,2.57
2022-11-04T06:54:18.958Z,2.50
2022-11-04T06:56:45.980Z,2.63
2022-11-04T06:59:17.518Z,2.07
2022-11-04T07:01:44.697Z,2.60
2022-11-04T07:04:11.241Z,2.07
2022-11-04T07:06:39.815Z,2.37
2022-11-04T07:09:11.024Z,2.73
2022-11-04T07:11:37.559Z,2.37
2022-11-04T07:14:04.118Z,2.93
2022-11-04T07:16:30.659Z,2.47
2022-11-04T07:18:57.313Z,2.90
2022-11-04T07:21:24.240Z,2.63
2022-11-04T07:23:50.802Z,2.40
2022-11-04T07:26:17.358Z,2.60
2022-11-04T07:28:44.032Z,2.40
2022-11-04T07:31:12.493Z,2.50
2022-11-04T07:33:39.038Z,2.40
2022-11-04T07:36:08.232Z,2.43
2022-11-04T07:38:34.875Z,2.63
2022-11-04T07:41:02.633Z,2.33
2022-11-04T07:43:30.046Z,2.67
2022-11-04T07:46:04.261Z,2.70
2022-11-04T07:48:30.890Z,2.40
2022-11-04T07:50:59.817Z,2.47
2022-11-04T07:53:27.736Z,2.23
2022-11-04T07:55:54.262Z,2.13
2022-11-04T07:58:21.397Z,2.63
2022-11-04T08:00:48.038Z,2.30
2022-11-04T08:03:14.983Z,2.43
2022-11-04T08:05:41.888Z,2.20
2022-11-04T08:08:08.536Z,2.47
2022-11-04T08:10:35.762Z,2.37
2022-11-04T08:13:02.374Z,2.77
2022-11-04T08:15:29.353Z,2.43
2022-11-04T08:17:56.088Z,2.77
2022-11-04T08:20:22.699Z,2.60
2022-11-04T08:22:49.477Z,2.87
2022-11-04T08:25:16.906Z,2.40
2022-11-04T08:27:43.904Z,2.87
2022-11-04T08:30:10.970Z,2.40
2022-11-04T08:32:37.473Z,2.40
2022-11-04T08:35:04.422Z,2.50
2022-11-04T08:37:30.899Z,2.20
2022-11-04T08:39:57.461Z,2.23
2022-11-04T08:42:23.968Z,2.20
2022-11-04T08:44:53.304Z,2.30
2022-11-04T08:47:20.226Z,2.27
2022-11-04T08:49:46.759Z,2.20
2022-11-04T08:52:13.278Z,2.33
2022-11-04T08:54:39.809Z,2.10
2022-11-04T08:57:06.337Z,2.40
2022-11-04T08:59:32.899Z,2.40
2022-11-04T09:01:59.469Z,2.47
2022-11-04T09:04:25.968Z,2.60
2022-11-04T09:06:52.844Z,2.53
2022-11-04T09:09:19.816Z,2.47
2022-11-04T09:11:47.199Z,2.43
2022-11-04T09:14:14.471Z,2.20
2022-11-04T09:16:41.929Z,2.50
2022-11-04T09:19:08.621Z,2.50
2022-11-04T09:21:35.530Z,2.83
2022-11-04T09:24:02.064Z,2.47
2022-11-04T09:26:28.857Z,2.67
2022-11-04T09:28:56.747Z,2.53
2022-11-04T09:31:23.921Z,2.40
2022-11-04T09:33:50.947Z,2.90
2022-11-04T09:36:17.507Z,2.37
2022-11-04T09:38:44.984Z,2.80
2022-11-04T09:41:32.932Z,2.17
2022-11-04T09:44:22.814Z,2.10
2022-11-04T09:46:50.979Z,2.23
2022-11-04T09:49:17.956Z,2.07
2022-11-04T09:51:54.504Z,2.23
2022-11-04T09:54:28.216Z,2.17
2022-11-04T09:56:55.947Z,2.10
2022-11-04T09:59:28.292Z,2.40
2022-11-04T10:02:14.357Z,2.27
2022-11-04T10:05:02.628Z,2.17
2022-11-04T10:07:57.845Z,2.23
2022-11-04T10:10:58.577Z,2.30
2022-11-04T10:13:40.238Z,2.23
2022-11-04T10:16:09.888Z,1.70
2022-11-04T10:18:54.835Z,2.23
2022-11-04T10:21:53.706Z,2.10
2022-11-04T10:24:25.496Z,2.23
2022-11-04T10:27:01.278Z,1.67
2022-11-04T10:29:53.364Z,2.00
2022-11-04T10:32:22.749Z,1.63
2022-11-04T10:35:02.653Z,1.73
2022-11-04T10:37:29.239Z,2.10
2022-11-04T10:40:03.012Z,2.00
2022-11-04T10:42:29.475Z,2.33
2022-11-04T10:44:56.042Z,2.03
2022-11-04T10:47:40.966Z,2.10
2022-11-04T10:50:37.692Z,2.30
2022-11-04T10:53:19.346Z,1.90
2022-11-04T10:56:13.627Z,1.97
2022-11-04T10:58:44.254Z,2.33
2022-11-04T11:01:27.481Z,2.30
2022-11-04T11:03:54.572Z,2.20
2022-11-04T11:06:27.291Z,1.90
2022-11-04T11:08:57.243Z,1.93
2022-11-04T11:12:29.416Z,1.90
2022-11-04T11:14:53.608Z,2.30
2022-11-04T11:17:25.653Z,2.17
2022-11-04T11:20:08.614Z,2.30
2022-11-04T11:22:35.040Z,2.03
2022-11-04T11:25:13.656Z,2.30
2022-11-04T11:27:44.858Z,2.00
2022-11-04T11:30:52.411Z,2.20
2022-11-04T11:33:20.650Z,2.40
2022-11-04T11:35:51.436Z,2.20
2022-11-04T11:38:28.887Z,2.00
2022-11-04T11:41:24.286Z,1.93
2022-11-04T11:43:53.382Z,1.83
2022-11-04T11:46:31.329Z,2.10
2022-11-04T11:49:03.328Z,2.20
2022-11-04T11:51:37.138Z,2.03
2022-11-04T11:54:17.628Z,2.63
2022-11-04T11:57:12.634Z,2.47
2022-11-04T12:02:42.234Z,2.27
2022-11-04T12:11:35.357Z,2.20
2022-11-04T12:14:11.965Z,1.77
2022-11-04T12:16:47.991Z,2.10
2022-11-04T12:19:20.971Z,1.83
2022-11-04T12:21:55.102Z,2.20
2022-11-04T12:24:55.319Z,2.17
2022-11-04T12:27:27.872Z,2.17
2022-11-04T12:30:22.320Z,2.13
2022-11-04T12:33:17.852Z,2.10
2022-11-04T12:36:00.772Z,2.30
2022-11-04T12:38:36.153Z,2.00
2022-11-04T12:41:37.982Z,2.67
2022-11-04T12:44:30.154Z,2.33
2022-11-04T12:47:16.039Z,2.80
2022-11-04T12:50:16.689Z,2.53
2022-11-04T12:53:04.425Z,2.47
2022-11-04T12:55:46.321Z,2.17
2022-11-04T12:58:28.048Z,2.43
2022-11-04T13:01:01.888Z,2.23
2022-11-04T13:03:33.278Z,2.37
2022-11-04T13:06:12.285Z,2.43
2022-11-04T13:09:02.684Z,1.80
2022-11-04T13:11:31.988Z,2.60
2022-11-04T13:14:02.642Z,2.77
2022-11-04T13:16:31.902Z,3.30
2022-11-04T13:18:59.273Z,3.03
2022-11-04T13:21:28.750Z,3.20
2022-11-04T13:24:35.230Z,3.50
2022-11-04T13:27:06.125Z,4.40
2022-11-04T13:29:34.809Z,4.87
2022-11-04T13:32:13.059Z,4.30
2022-11-04T13:35:02.134Z,3.97
2022-11-04T13:37:33.420Z,4.33
2022-11-04T13:40:04.468Z,4.20
2022-11-04T13:42:47.766Z,3.87
2022-11-04T13:45:17.411Z,5.20
2022-11-04T13:47:44.051Z,4.30
2022-11-04T13:50:32.851Z,4.33
2022-11-04T13:52:59.625Z,5.07
2022-11-04T13:55:26.223Z,5.70
2022-11-04T13:57:55.974Z,5.80
2022-11-04T14:00:25.346Z,5.70
2022-11-04T14:02:51.975Z,5.03
2022-11-04T14:05:27.984Z,5.33
2022-11-04T14:08:03.121Z,5.53
2022-11-04T14:10:48.034Z,5.67
2022-11-04T14:13:34.848Z,4.60
2022-11-04T14:16:05.700Z,4.03
2022-11-04T14:18:36.680Z,4.13
2022-11-04T14:21:10.889Z,4.23
2022-11-04T14:23:39.218Z,4.50
2022-11-04T14:26:08.163Z,4.23
2022-11-04T14:28:35.370Z,3.70
2022-11-04T14:31:09.973Z,4.47
2022-11-04T14:33:40.653Z,4.03
2022-11-04T14:36:25.209Z,4.23
2022-11-04T14:38:53.296Z,4.00
2022-11-04T14:41:25.750Z,4.27
2022-11-04T14:43:53.797Z,5.77
2022-11-04T14:46:23.105Z,3.83
2022-11-04T14:48:53.559Z,4.30
2022-11-04T14:51:27.756Z,4.63
2022-11-04T14:54:19.085Z,3.43
2022-11-04T14:56:46.886Z,3.90
2022-11-04T14:59:22.064Z,3.63
2022-11-04T15:01:49.403Z,3.50
2022-11-04T15:04:26.464Z,3.90
2022-11-04T15:07:01.488Z,4.00
2022-11-04T15:09:30.976Z,3.77
2022-11-04T15:12:30.801Z,3.53
2022-11-04T15:14:58.005Z,4.10
2022-11-04T15:17:27.204Z,3.90
2022-11-04T15:19:56.115Z,4.67
2022-11-04T15:22:23.171Z,4.70
2022-11-04T15:24:53.125Z,5.90
2022-11-04T15:27:24.958Z,7.10
2022-11-04T15:30:00.457Z,5.13
2022-11-04T15:32:27.638Z,5.53
2022-11-04T15:34:54.989Z,5.03
2022-11-04T15:37:23.677Z,4.67
2022-11-04T15:39:52.898Z,4.43
2022-11-04T15:42:59.873Z,5.63
2022-11-04T15:45:35.105Z,4.43
2022-11-04T15:48:23.577Z,4.77
2022-11-04T15:51:16.470Z,4.80
2022-11-04T15:53:56.107Z,4.70
2022-11-04T15:56:27.398Z,5.10
2022-11-04T15:58:54.974Z,6.97
2022-11-04T16:01:21.970Z,8.07
2022-11-04T16:03:53.950Z,6.23
2022-11-04T16:06:37.550Z,6.20
2022-11-04T16:09:21.179Z,5.83
2022-11-04T16:12:07.636Z,5.10
2022-11-04T16:14:34.361Z,6.07
2022-11-04T16:17:01.025Z,6.53
2022-11-04T16:19:29.660Z,5.67
2022-11-04T16:22:05.605Z,6.40
2022-11-04T16:24:33.634Z,6.10
2022-11-04T16:27:01.197Z,5.60
2022-11-04T16:29:33.532Z,6.43
2022-11-04T16:32:09.731Z,6.60
2022-11-04T16:34:36.314Z,10.03
2022-11-04T16:37:03.041Z,8.97
2022-11-04T16:39:29.986Z,7.80
2022-11-04T16:41:57.125Z,9.37
2022-11-04T16:44:24.909Z,6.20
2022-11-04T16:46:52.218Z,5.97
2022-11-04T16:49:20.827Z,6.40
2022-11-04T16:51:50.966Z,9.33
2022-11-04T16:54:18.974Z,8.90
2022-11-04T16:56:45.757Z,5.40
2022-11-04T16:59:12.416Z,4.67
2022-11-04T17:01:42.282Z,5.13
2022-11-04T17:04:09.157Z,5.00
2022-11-04T17:06:36.215Z,7.27
2022-11-04T17:09:03.461Z,5.30
2022-11-04T17:11:30.407Z,5.27
2022-11-04T17:13:57.165Z,5.17
2022-11-04T17:16:24.678Z,5.07
2022-11-04T17:18:51.546Z,5.17
2022-11-04T17:21:20.460Z,5.60
2022-11-04T17:23:47.076Z,5.10
2022-11-04T17:26:14.339Z,4.73
2022-11-04T17:28:41.141Z,5.50
2022-11-04T17:31:08.152Z,5.30
2022-11-04T17:33:34.797Z,5.80
2022-11-04T17:36:07.521Z,5.73
2022-11-04T17:38:34.467Z,5.37
2022-11-04T17:41:19.651Z,6.50
2022-11-04T17:44:01.139Z,6.73
2022-11-04T17:46:35.057Z,6.23
2022-11-04T17:49:13.060Z,6.00
2022-11-04T17:51:41.828Z,6.13
2022-11-04T17:54:09.497Z,6.90
2022-11-04T17:56:37.677Z,6.47
2022-11-04T17:59:04.821Z,6.00
2022-11-04T18:01:33.236Z,6.60
2022-11-04T18:04:00.241Z,7.33
2022-11-04T18:06:30.523Z,7.07
2022-11-04T18:08:58.026Z,6.70
2022-11-04T18:11:44.754Z,6.70
2022-11-04T18:14:16.648Z,6.60
2022-11-04T18:16:46.297Z,6.53
2022-11-04T18:19:13.239Z,11.27
2022-11-04T18:21:40.006Z,9.70
2022-11-04T18:24:07.210Z,6.37
2022-11-04T18:26:34.499Z,8.00
2022-11-04T18:29:01.739Z,7.30
2022-11-04T18:31:30.789Z,8.97
2022-11-04T18:34:02.415Z,8.37
2022-11-04T18:36:29.886Z,7.97
2022-11-04T18:38:57.198Z,12.40
2022-11-04T18:41:24.068Z,9.50
2022-11-04T18:43:50.715Z,9.40
2022-11-04T18:46:17.945Z,8.83
2022-11-04T18:48:48.679Z,11.87
2022-11-04T18:51:15.339Z,18.33
2022-11-04T18:53:41.851Z,10.40
2022-11-04T18:56:10.850Z,11.27
2022-11-04T18:58:39.043Z,12.23
2022-11-04T19:01:08.696Z,16.43
2022-11-04T19:03:36.050Z,20.37
2022-11-04T19:06:13.492Z,16.47
2022-11-04T19:08:46.281Z,12.90
2022-11-04T19:11:24.377Z,21.17
2022-11-04T19:13:53.266Z,15.43
2022-11-04T19:16:20.631Z,15.23
2022-11-04T19:18:50.132Z,10.80
2022-11-04T19:21:19.122Z,14.23
2022-11-04T19:23:45.913Z,13.93
2022-11-04T19:26:19.145Z,18.00
2022-11-04T19:28:48.441Z,12.60
2022-11-04T19:31:27.750Z,16.00
2022-11-04T19:33:55.674Z,11.90
2022-11-04T19:36:22.809Z,13.10
2022-11-04T19:38:53.150Z,13.03
2022-11-04T19:41:38.901Z,11.53
2022-11-04T19:44:09.775Z,15.97
2022-11-04T19:46:37.101Z,14.50
2022-11-04T19:49:04.542Z,12.40
2022-11-04T19:51:32.257Z,14.47
2022-11-04T19:53:59.556Z,15.40
2022-11-04T19:56:26.751Z,14.73
2022-11-04T19:58:53.625Z,13.23
2022-11-04T20:01:21.321Z,19.07
2022-11-04T20:03:48.081Z,16.60
2022-11-04T20:06:16.201Z,19.47
2022-11-04T20:08:44.319Z,18.17
2022-11-04T20:11:12.318Z,16.87
2022-11-04T20:13:47.133Z,13.03
2022-11-04T20:16:18.192Z,10.80
2022-11-04T20:18:46.833Z,12.27
2022-11-04T20:21:14.499Z,15.40
2022-11-04T20:23:41.918Z,11.60
2022-11-04T20:26:21.026Z,14.33
2022-11-04T20:28:47.962Z,14.23
2022-11-04T20:31:20.125Z,16.97
2022-11-04T20:33:48.290Z,16.33
2022-11-04T20:36:17.485Z,13.00
2022-11-04T20:38:44.306Z,14.67
2022-11-04T20:41:21.619Z,15.97
2022-11-04T20:43:49.276Z,15.10
2022-11-04T20:46:18.583Z,15.60
2022-11-04T20:48:46.516Z,15.93
2022-11-04T20:51:18.745Z,16.03
2022-11-04T20:53:45.911Z,12.80
2022-11-04T20:56:15.071Z,11.83
2022-11-04T20:58:43.389Z,12.63
2022-11-04T21:01:16.672Z,12.97
2022-11-04T21:03:43.794Z,12.77
2022-11-04T21:06:11.502Z,12.73
2022-11-04T21:08:38.118Z,14.40
2022-11-04T21:11:05.943Z,13.80
2022-11-04T21:13:33.403Z,13.43
2022-11-04T21:16:01.224Z,14.77
2022-11-04T21:18:28.728Z,14.90
2022-11-04T21:20:55.376Z,14.40
2022-11-04T21:23:22.096Z,14.47
2022-11-04T21:25:59.846Z,14.03
2022-11-04T21:28:26.690Z,13.33
2022-11-04T21:30:54.247Z,13.17
2022-11-04T21:33:21.280Z,14.63
2022-11-04T21:35:50.754Z,13.50
2022-11-04T21:38:18.571Z,14.13
2022-11-04T21:40:45.907Z,14.20
2022-11-04T21:43:13.274Z,14.17
2022-11-04T21:45:39.871Z,14.17
2022-11-04T21:48:06.799Z,15.17
2022-11-04T21:50:33.733Z,14.57
2022-11-04T21:53:00.497Z,14.63
2022-11-04T21:55:26.998Z,14.47
2022-11-04T21:57:53.513Z,15.37
2022-11-04T22:00:20.262Z,15.40
2022-11-04T22:02:50.699Z,14.80
2022-11-04T22:05:17.822Z,14.30
2022-11-04T22:08:03.280Z,16.00
2022-11-04T22:10:29.788Z,15.03
2022-11-04T22:12:56.302Z,15.37
2022-11-04T22:15:41.242Z,15.47
2022-11-04T22:18:07.745Z,15.13
2022-11-04T22:20:37.733Z,15.40
2022-11-04T22:23:04.537Z,15.27
2022-11-04T22:25:31.333Z,14.60
2022-11-04T22:27:58.136Z,14.13
2022-11-04T22:30:24.969Z,13.60
2022-11-04T22:32:52.518Z,13.57
2022-11-04T22:35:19.118Z,12.17
2022-11-04T22:37:45.863Z,12.40
2022-11-04T22:40:12.817Z,12.93
2022-11-04T22:42:39.351Z,12.93
2022-11-04T22:45:06.449Z,12.20
2022-11-04T22:47:32.913Z,11.10
2022-11-04T22:49:59.389Z,11.33
2022-11-04T22:52:26.010Z,10.83
2022-11-04T22:54:52.440Z,10.33
2022-11-04T22:57:18.994Z,10.27
2022-11-04T22:59:45.470Z,10.90
2022-11-04T23:02:12.354Z,10.60
2022-11-04T23:04:40.517Z,9.93
2022-11-04T23:07:07.229Z,9.47
2022-11-04T23:09:34.058Z,9.53
2022-11-04T23:12:19.438Z,9.77
2022-11-04T23:14:45.950Z,10.30
2022-11-04T23:17:35.186Z,9.60
2022-11-04T23:20:02.591Z,10.07
2022-11-04T23:22:47.708Z,9.70
2022-11-04T23:25:14.565Z,9.30
2022-11-04T23:28:04.496Z,9.63
2022-11-04T23:30:33.431Z,9.13
2022-11-04T23:33:18.125Z,8.87
2022-11-04T23:36:07.630Z,10.20
2022-11-04T23:38:35.471Z,10.80
2022-11-04T23:41:25.580Z,10.30
2022-11-04T23:43:52.331Z,8.10
2022-11-04T23:46:42.619Z,8.77
2022-11-04T23:49:31.922Z,7.87
2022-11-04T23:52:17.019Z,9.00
2022-11-04T23:55:02.017Z,8.30
2022-11-04T23:57:47.403Z,7.70
